createdAt,value
2018-07-03T00:00:16.646Z,1011.20
2018-07-03T00:01:16.616Z,1011.18
2018-07-03T00:02:16.563Z,1011.21
2018-07-03T00:03:16.517Z,1011.23
2018-07-03T00:04:16.489Z,1011.21
2018-07-03T00:05:16.458Z,1011.26
2018-07-03T00:06:16.404Z,1011.22
2018-07-03T00:07:16.361Z,1011.24
2018-07-03T00:08:16.358Z,1011.19
2018-07-03T00:09:16.284Z,1011.19
2018-07-03T00:10:16.277Z,1011.17
2018-07-03T00:11:16.253Z,1011.18
2018-07-03T00:12:16.181Z,1011.15
2018-07-03T00:13:16.168Z,1011.11
2018-07-03T00:14:16.101Z,1011.15
2018-07-03T00:15:16.064Z,1011.13
2018-07-03T00:16:16.067Z,1011.17
2018-07-03T00:17:16.003Z,1011.15
2018-07-03T00:18:15.997Z,1011.17
2018-07-03T00:19:15.932Z,1011.11
2018-07-03T00:20:15.886Z,1011.12
2018-07-03T00:21:15.896Z,1011.10
2018-07-03T00:22:15.807Z,1011.07
2018-07-03T00:23:15.779Z,1011.07
2018-07-03T00:24:15.734Z,1011.07
2018-07-03T00:25:15.738Z,1011.10
2018-07-03T00:26:15.683Z,1011.09
2018-07-03T00:27:15.619Z,1011.09
2018-07-03T00:28:15.580Z,1011.10
2018-07-03T00:29:15.542Z,1011.06
2018-07-03T00:30:15.510Z,1011.09
2018-07-03T00:31:15.466Z,1011.07
2018-07-03T00:32:15.505Z,1011.08
2018-07-03T00:33:15.415Z,1011.05
2018-07-03T00:34:15.381Z,1011.05
2018-07-03T00:35:15.357Z,1011.04
2018-07-03T00:36:15.291Z,1011.07
2018-07-03T00:37:15.290Z,1011.05
2018-07-03T00:38:15.232Z,1011.04
2018-07-03T00:39:15.190Z,1011.04
2018-07-03T00:40:15.178Z,1011.04
2018-07-03T00:41:15.123Z,1011.03
2018-07-03T00:42:15.081Z,1011.06
2018-07-03T00:43:15.026Z,1011.07
2018-07-03T00:44:14.990Z,1010.99
2018-07-03T00:45:14.950Z,1011.03
2018-07-03T00:46:14.919Z,1011.07
2018-07-03T00:47:14.884Z,1011.04
2018-07-03T00:48:14.876Z,1011.13
2018-07-03T00:49:14.802Z,1011.07
2018-07-03T00:50:14.856Z,1011.00
2018-07-03T00:51:14.721Z,1011.07
2018-07-03T00:52:14.697Z,1011.12
2018-07-03T00:53:14.714Z,1011.08
2018-07-03T00:54:14.613Z,1011.10
2018-07-03T00:55:14.568Z,1011.10
2018-07-03T00:56:14.607Z,1011.14
2018-07-03T00:57:14.507Z,1011.16
2018-07-03T00:58:14.487Z,1011.19
2018-07-03T00:59:14.459Z,1011.22
2018-07-03T01:00:14.403Z,1011.23
2018-07-03T01:01:14.364Z,1011.25
2018-07-03T01:02:14.323Z,1011.29
2018-07-03T01:03:14.336Z,1011.30
2018-07-03T01:04:14.234Z,1011.30
2018-07-03T01:05:14.250Z,1011.33
2018-07-03T01:06:14.166Z,1011.30
2018-07-03T01:07:14.200Z,1011.31
2018-07-03T01:08:14.106Z,1011.33
2018-07-03T01:09:14.070Z,1011.31
2018-07-03T01:10:14.040Z,1011.28
2018-07-03T01:11:13.982Z,1011.28
2018-07-03T01:12:13.949Z,1011.29
2018-07-03T01:13:13.906Z,1011.33
2018-07-03T01:14:13.900Z,1011.31
2018-07-03T01:15:13.841Z,1011.29
2018-07-03T01:16:13.858Z,1011.28
2018-07-03T01:17:13.760Z,1011.33
2018-07-03T01:18:13.720Z,1011.30
2018-07-03T01:19:13.688Z,1011.36
2018-07-03T01:20:13.672Z,1011.31
2018-07-03T01:21:13.647Z,1011.33
2018-07-03T01:22:13.564Z,1011.31
2018-07-03T01:23:13.565Z,1011.26
2018-07-03T01:24:13.500Z,1011.27
2018-07-03T01:25:13.485Z,1011.25
2018-07-03T01:26:13.425Z,1011.23
2018-07-03T01:27:13.375Z,1011.21
2018-07-03T01:28:13.344Z,1011.23
2018-07-03T01:29:13.332Z,1011.20
2018-07-03T01:30:13.293Z,1011.19
2018-07-03T01:31:13.236Z,1011.21
2018-07-03T01:32:13.215Z,1011.22
2018-07-03T01:33:13.148Z,1011.21
2018-07-03T01:34:13.121Z,1011.27
2018-07-03T01:35:13.088Z,1011.26
2018-07-03T01:36:13.046Z,1011.25
2018-07-03T01:37:13.037Z,1011.24
2018-07-03T01:38:12.976Z,1011.24
2018-07-03T01:39:12.917Z,1011.28
2018-07-03T01:40:12.905Z,1011.25
2018-07-03T01:41:12.873Z,1011.22
2018-07-03T01:42:12.836Z,1011.24
2018-07-03T01:43:12.775Z,1011.24
2018-07-03T01:44:12.718Z,1011.26
2018-07-03T01:45:22.742Z,1011.25
2018-07-03T01:46:12.660Z,1011.24
2018-07-03T01:47:12.621Z,1011.25
2018-07-03T01:48:12.566Z,1011.27
2018-07-03T01:49:12.582Z,1011.29
2018-07-03T01:50:12.545Z,1011.32
2018-07-03T01:51:12.449Z,1011.30
2018-07-03T01:52:12.419Z,1011.31
2018-07-03T01:53:12.443Z,1011.28
2018-07-03T01:54:12.348Z,1011.26
2018-07-03T01:55:12.358Z,1011.27
2018-07-03T01:56:12.296Z,1011.26
2018-07-03T01:57:12.267Z,1011.23
2018-07-03T01:58:12.219Z,1011.22
2018-07-03T01:59:12.142Z,1011.26
2018-07-03T02:00:12.109Z,1011.26
2018-07-03T02:01:12.101Z,1011.24
2018-07-03T02:02:12.038Z,1011.29
2018-07-03T02:03:12.042Z,1011.33
2018-07-03T02:04:11.996Z,1011.26
2018-07-03T02:05:11.943Z,1011.27
2018-07-03T02:06:11.906Z,1011.25
2018-07-03T02:07:11.906Z,1011.23
2018-07-03T02:08:11.838Z,1011.20
2018-07-03T02:09:11.784Z,1011.16
2018-07-03T02:10:11.765Z,1011.17
2018-07-03T02:11:11.719Z,1011.18
2018-07-03T02:12:11.645Z,1011.17
2018-07-03T02:13:11.628Z,1011.19
2018-07-03T02:14:11.595Z,1011.18
2018-07-03T02:15:11.535Z,1011.16
2018-07-03T02:16:11.528Z,1011.19
2018-07-03T02:17:11.483Z,1011.17
2018-07-03T02:18:11.416Z,1011.20
2018-07-03T02:19:11.387Z,1011.19
2018-07-03T02:20:11.332Z,1011.13
2018-07-03T02:21:11.357Z,1011.13
2018-07-03T02:22:11.323Z,1011.12
2018-07-03T02:23:11.248Z,1011.14
2018-07-03T02:24:11.173Z,1011.14
2018-07-03T02:25:11.155Z,1011.07
2018-07-03T02:26:11.113Z,1011.10
2018-07-03T02:27:11.105Z,1011.11
2018-07-03T02:28:11.037Z,1011.09
2018-07-03T02:29:11.033Z,1011.08
2018-07-03T02:30:10.970Z,1011.09
2018-07-03T02:31:10.983Z,1011.09
2018-07-03T02:32:10.886Z,1011.07
2018-07-03T02:33:10.866Z,1011.07
2018-07-03T02:34:10.824Z,1011.10
2018-07-03T02:35:10.804Z,1011.14
2018-07-03T02:36:10.740Z,1011.12
2018-07-03T02:37:10.716Z,1011.09
2018-07-03T02:38:10.687Z,1011.14
2018-07-03T02:39:10.675Z,1011.10
2018-07-03T02:40:10.569Z,1011.08
2018-07-03T02:41:10.531Z,1011.07
2018-07-03T02:42:10.476Z,1011.04
2018-07-03T02:43:10.529Z,1011.08
2018-07-03T02:44:10.430Z,1011.07
2018-07-03T02:45:10.381Z,1011.04
2018-07-03T02:46:10.346Z,1011.04
2018-07-03T02:47:10.376Z,1011.03
2018-07-03T02:48:10.269Z,1011.06
2018-07-03T02:49:10.258Z,1011.04
2018-07-03T02:50:10.171Z,1011.00
2018-07-03T02:51:10.151Z,1011.00
2018-07-03T02:52:10.100Z,1011.02
2018-07-03T02:53:10.139Z,1010.98
2018-07-03T02:54:10.080Z,1010.97
2018-07-03T02:55:09.973Z,1010.99
2018-07-03T02:56:09.975Z,1011.00
2018-07-03T02:57:20.272Z,1010.99
2018-07-03T02:58:09.946Z,1011.01
2018-07-03T02:59:09.805Z,1010.99
2018-07-03T03:00:09.777Z,1011.00
2018-07-03T03:01:09.748Z,1011.01
2018-07-03T03:02:09.693Z,1011.04
2018-07-03T03:03:09.855Z,1011.04
2018-07-03T03:04:09.611Z,1011.05
2018-07-03T03:05:09.670Z,1011.08
2018-07-03T03:06:09.545Z,1011.10
2018-07-03T03:07:09.537Z,1011.09
2018-07-03T03:08:09.516Z,1011.09
2018-07-03T03:09:09.438Z,1011.09
2018-07-03T03:10:09.399Z,1011.05
2018-07-03T03:11:09.366Z,1011.07
2018-07-03T03:12:09.324Z,1011.07
2018-07-03T03:13:09.318Z,1011.07
2018-07-03T03:14:09.246Z,1011.04
2018-07-03T03:15:09.196Z,1010.99
2018-07-03T03:16:09.171Z,1011.04
2018-07-03T03:17:09.132Z,1010.97
2018-07-03T03:18:09.139Z,1011.00
2018-07-03T03:19:09.040Z,1010.98
2018-07-03T03:20:08.994Z,1010.97
2018-07-03T03:21:18.103Z,1010.97
2018-07-03T03:22:08.973Z,1011.00
2018-07-03T03:23:08.896Z,1010.94
2018-07-03T03:24:08.890Z,1010.99
2018-07-03T03:25:08.870Z,1010.97
2018-07-03T03:26:08.773Z,1010.98
2018-07-03T03:27:08.789Z,1010.97
2018-07-03T03:28:08.738Z,1010.96
2018-07-03T03:29:08.671Z,1010.92
2018-07-03T03:30:08.620Z,1010.91
2018-07-03T03:31:08.569Z,1010.90
2018-07-03T03:32:08.520Z,1010.89
2018-07-03T03:33:08.525Z,1010.84
2018-07-03T03:34:08.452Z,1010.87
2018-07-03T03:35:08.449Z,1010.86
2018-07-03T03:36:08.411Z,1010.86
2018-07-03T03:37:08.356Z,1010.87
2018-07-03T03:38:08.300Z,1010.87
2018-07-03T03:39:08.288Z,1010.84
2018-07-03T03:40:08.227Z,1010.85
2018-07-03T03:41:08.218Z,1010.88
2018-07-03T03:42:08.159Z,1010.91
2018-07-03T03:43:08.106Z,1010.90
2018-07-03T03:44:08.047Z,1010.85
2018-07-03T03:45:08.088Z,1010.81
2018-07-03T03:46:07.988Z,1010.85
2018-07-03T03:47:07.973Z,1010.85
2018-07-03T03:48:07.906Z,1010.86
2018-07-03T03:49:07.868Z,1010.92
2018-07-03T03:50:07.865Z,1010.88
2018-07-03T03:51:07.784Z,1010.85
2018-07-03T03:52:07.776Z,1010.88
2018-07-03T03:53:07.705Z,1010.89
2018-07-03T03:54:07.672Z,1010.88
2018-07-03T03:55:07.681Z,1010.90
2018-07-03T03:56:07.587Z,1010.91
2018-07-03T03:57:07.579Z,1010.97
2018-07-03T03:58:07.521Z,1010.92
2018-07-03T03:59:07.489Z,1010.91
2018-07-03T04:00:07.481Z,1010.94
2018-07-03T04:01:07.448Z,1010.98
2018-07-03T04:02:07.430Z,1010.99
2018-07-03T04:03:07.316Z,1010.97
2018-07-03T04:04:07.342Z,1011.01
2018-07-03T04:05:07.267Z,1011.04
2018-07-03T04:06:07.190Z,1011.06
2018-07-03T04:07:07.243Z,1011.04
2018-07-03T04:08:07.118Z,1011.03
2018-07-03T04:09:07.079Z,1011.05
2018-07-03T04:10:07.030Z,1011.05
2018-07-03T04:11:07.022Z,1011.09
2018-07-03T04:12:06.989Z,1011.10
2018-07-03T04:13:07.018Z,1011.16
2018-07-03T04:14:06.887Z,1011.15
2018-07-03T04:15:06.848Z,1011.17
2018-07-03T04:16:06.815Z,1011.17
2018-07-03T04:17:06.790Z,1011.20
2018-07-03T04:18:06.727Z,1011.21
2018-07-03T04:19:06.700Z,1011.21
2018-07-03T04:20:06.681Z,1011.22
2018-07-03T04:21:06.625Z,1011.19
2018-07-03T04:22:06.587Z,1011.22
2018-07-03T04:23:06.542Z,1011.19
2018-07-03T04:24:06.511Z,1011.21
2018-07-03T04:25:06.468Z,1011.21
2018-07-03T04:26:06.459Z,1011.20
2018-07-03T04:27:06.382Z,1011.22
2018-07-03T04:28:06.342Z,1011.23
2018-07-03T04:29:06.325Z,1011.26
2018-07-03T04:30:06.260Z,1011.27
2018-07-03T04:31:06.255Z,1011.26
2018-07-03T04:32:06.225Z,1011.27
2018-07-03T04:33:16.592Z,1011.28
2018-07-03T04:34:06.182Z,1011.32
2018-07-03T04:35:06.066Z,1011.36
2018-07-03T04:36:06.113Z,1011.39
2018-07-03T04:37:05.976Z,1011.43
2018-07-03T04:38:05.956Z,1011.53
2018-07-03T04:39:05.899Z,1011.52
2018-07-03T04:40:05.892Z,1011.53
2018-07-03T04:41:05.857Z,1011.59
2018-07-03T04:42:05.802Z,1011.55
2018-07-03T04:43:05.812Z,1011.57
2018-07-03T04:44:05.728Z,1011.60
2018-07-03T04:45:05.684Z,1011.66
2018-07-03T04:46:05.680Z,1011.67
2018-07-03T04:47:05.612Z,1011.69
2018-07-03T04:48:05.595Z,1011.73
2018-07-03T04:49:05.544Z,1011.71
2018-07-03T04:50:05.624Z,1011.74
2018-07-03T04:51:05.491Z,1011.74
2018-07-03T04:52:05.434Z,1011.80
2018-07-03T04:53:05.417Z,1011.85
2018-07-03T04:54:05.353Z,1011.83
2018-07-03T04:55:05.319Z,1011.88
2018-07-03T04:56:15.239Z,1011.89
2018-07-03T04:57:09.489Z,1011.90
2018-07-03T04:58:05.760Z,1011.90
2018-07-03T04:59:05.185Z,1011.90
2018-07-03T05:00:05.161Z,1011.91
2018-07-03T05:01:05.167Z,1011.87
2018-07-03T05:02:05.075Z,1011.87
2018-07-03T05:03:05.030Z,1011.87
2018-07-03T05:04:05.007Z,1011.86
2018-07-03T05:05:04.989Z,1011.91
2018-07-03T05:06:04.979Z,1011.90
2018-07-03T05:07:04.945Z,1011.92
2018-07-03T05:08:04.873Z,1011.92
2018-07-03T05:09:04.868Z,1011.97
2018-07-03T05:10:04.843Z,1011.99
2018-07-03T05:11:04.769Z,1011.99
2018-07-03T05:12:04.746Z,1012.02
2018-07-03T05:13:04.710Z,1012.07
2018-07-03T05:14:04.657Z,1012.08
2018-07-03T05:15:04.692Z,1012.06
2018-07-03T05:16:04.605Z,1012.10
2018-07-03T05:17:04.580Z,1012.08
2018-07-03T05:18:04.534Z,1012.06
2018-07-03T05:19:04.519Z,1012.09
2018-07-03T05:20:04.504Z,1012.08
2018-07-03T05:21:04.430Z,1012.06
2018-07-03T05:22:04.491Z,1012.05
2018-07-03T05:23:04.366Z,1012.03
2018-07-03T05:24:04.330Z,1012.07
2018-07-03T05:25:04.316Z,1012.11
2018-07-03T05:26:04.305Z,1012.12
2018-07-03T05:27:04.332Z,1012.11
2018-07-03T05:28:04.206Z,1012.10
2018-07-03T05:29:04.157Z,1012.12
2018-07-03T05:30:04.163Z,1012.16
2018-07-03T05:31:04.135Z,1012.12
2018-07-03T05:32:04.077Z,1012.10
2018-07-03T05:33:04.088Z,1012.15
2018-07-03T05:34:04.004Z,1012.14
2018-07-03T05:35:04.020Z,1012.16
2018-07-03T05:36:03.939Z,1012.16
2018-07-03T05:37:03.934Z,1012.19
2018-07-03T05:38:03.906Z,1012.16
2018-07-03T05:39:03.860Z,1012.18
2018-07-03T05:40:03.814Z,1012.21
2018-07-03T05:41:03.816Z,1012.17
2018-07-03T05:42:03.776Z,1012.16
2018-07-03T05:43:03.764Z,1012.20
2018-07-03T05:44:03.700Z,1012.19
2018-07-03T05:45:03.718Z,1012.23
2018-07-03T05:46:03.613Z,1012.25
2018-07-03T05:47:03.642Z,1012.29
2018-07-03T05:48:03.624Z,1012.34
2018-07-03T05:49:03.536Z,1012.36
2018-07-03T05:50:03.492Z,1012.31
2018-07-03T05:51:03.500Z,1012.36
2018-07-03T05:52:03.424Z,1012.36
2018-07-03T05:53:03.457Z,1012.37
2018-07-03T05:54:03.403Z,1012.38
2018-07-03T05:55:03.344Z,1012.41
2018-07-03T05:56:03.310Z,1012.44
2018-07-03T05:57:03.273Z,1012.43
2018-07-03T05:58:03.259Z,1012.47
2018-07-03T05:59:03.241Z,1012.47
2018-07-03T06:00:03.172Z,1012.51
2018-07-03T06:01:03.168Z,1012.51
2018-07-03T06:02:03.139Z,1012.52
2018-07-03T06:03:03.133Z,1012.50
2018-07-03T06:04:03.300Z,1012.55
2018-07-03T06:05:03.074Z,1012.56
2018-07-03T06:06:02.989Z,1012.60
2018-07-03T06:07:02.993Z,1012.61
2018-07-03T06:08:02.951Z,1012.67
2018-07-03T06:09:02.929Z,1012.69
2018-07-03T06:10:02.864Z,1012.71
2018-07-03T06:11:02.849Z,1012.69
2018-07-03T06:12:02.807Z,1012.68
2018-07-03T06:13:02.819Z,1012.74
2018-07-03T06:14:02.841Z,1012.79
2018-07-03T06:15:02.735Z,1012.85
2018-07-03T06:16:02.712Z,1012.95
2018-07-03T06:17:02.660Z,1012.99
2018-07-03T06:18:02.669Z,1013.07
2018-07-03T06:19:02.582Z,1013.07
2018-07-03T06:20:02.602Z,1013.13
2018-07-03T06:21:02.531Z,1013.12
2018-07-03T06:22:02.565Z,1013.13
2018-07-03T06:23:02.467Z,1013.13
2018-07-03T06:24:02.474Z,1013.08
2018-07-03T06:25:02.435Z,1013.10
2018-07-03T06:26:02.384Z,1013.03
2018-07-03T06:27:02.369Z,1012.98
2018-07-03T06:28:02.337Z,1013.02
2018-07-03T06:29:02.348Z,1012.94
2018-07-03T06:30:02.280Z,1012.96
2018-07-03T06:31:02.248Z,1012.93
2018-07-03T06:32:02.200Z,1012.97
2018-07-03T06:33:02.167Z,1013.01
2018-07-03T06:34:02.146Z,1012.99
2018-07-03T06:35:02.125Z,1013.02
2018-07-03T06:36:02.138Z,1013.01
2018-07-03T06:37:02.058Z,1012.99
2018-07-03T06:38:02.041Z,1013.07
2018-07-03T06:39:01.995Z,1013.11
2018-07-03T06:40:01.969Z,1013.15
2018-07-03T06:41:01.944Z,1013.17
2018-07-03T06:42:01.936Z,1013.23
2018-07-03T06:43:01.896Z,1013.32
2018-07-03T06:44:01.866Z,1013.41
2018-07-03T06:45:01.868Z,1013.42
2018-07-03T06:46:01.816Z,1013.48
2018-07-03T06:47:01.790Z,1013.50
2018-07-03T06:48:01.779Z,1013.50
2018-07-03T06:49:01.718Z,1013.59
2018-07-03T06:50:01.666Z,1013.62
2018-07-03T06:51:01.649Z,1013.70
2018-07-03T06:52:01.653Z,1013.74
2018-07-03T06:53:01.584Z,1013.83
2018-07-03T06:54:01.577Z,1013.85
2018-07-03T06:55:01.540Z,1013.96
2018-07-03T06:56:01.492Z,1014.00
2018-07-03T06:57:01.470Z,1014.15
2018-07-03T06:58:01.476Z,1014.25
2018-07-03T06:59:01.416Z,1014.11
2018-07-03T07:00:01.397Z,1014.12
2018-07-03T07:01:01.354Z,1014.10
2018-07-03T07:02:01.327Z,1014.04
2018-07-03T07:03:01.344Z,1014.05
2018-07-03T07:04:01.312Z,1014.07
2018-07-03T07:05:01.234Z,1014.03
2018-07-03T07:06:01.197Z,1013.89
2018-07-03T07:07:01.179Z,1013.73
2018-07-03T07:08:01.234Z,1013.71
2018-07-03T07:09:01.233Z,1013.66
2018-07-03T07:10:01.086Z,1013.53
2018-07-03T07:11:01.051Z,1013.51
2018-07-03T07:12:01.018Z,1013.33
2018-07-03T07:13:01.020Z,1013.27
2018-07-03T07:14:00.957Z,1013.29
2018-07-03T07:15:00.988Z,1013.24
2018-07-03T07:16:00.929Z,1013.25
2018-07-03T07:17:00.872Z,1013.25
2018-07-03T07:18:00.884Z,1013.28
2018-07-03T07:19:00.868Z,1013.22
2018-07-03T07:20:00.784Z,1013.18
2018-07-03T07:21:00.771Z,1013.10
2018-07-03T07:22:00.725Z,1013.06
2018-07-03T07:23:00.722Z,1013.02
2018-07-03T07:24:00.707Z,1012.98
2018-07-03T07:25:00.633Z,1012.96
2018-07-03T07:26:00.621Z,1012.96
2018-07-03T07:27:00.598Z,1012.89
2018-07-03T07:28:00.551Z,1012.79
2018-07-03T07:29:00.564Z,1012.81
2018-07-03T07:30:00.508Z,1012.85
2018-07-03T07:31:00.511Z,1012.93
2018-07-03T07:32:00.458Z,1012.91
2018-07-03T07:33:00.422Z,1012.92
2018-07-03T07:34:00.413Z,1012.90
2018-07-03T07:35:00.367Z,1012.91
2018-07-03T07:36:00.399Z,1012.93
2018-07-03T07:37:00.317Z,1012.87
2018-07-03T07:38:00.298Z,1012.87
2018-07-03T07:39:00.294Z,1012.89
2018-07-03T07:40:00.239Z,1012.86
2018-07-03T07:41:00.190Z,1012.83
2018-07-03T07:42:00.171Z,1012.84
2018-07-03T07:43:00.178Z,1012.78
2018-07-03T07:44:00.113Z,1012.81
2018-07-03T07:45:00.114Z,1012.87
2018-07-03T07:46:00.084Z,1012.86
2018-07-03T07:47:00.031Z,1012.86
2018-07-03T07:48:00.047Z,1012.85
2018-07-03T07:48:59.970Z,1012.89
2018-07-03T07:49:59.966Z,1012.87
2018-07-03T07:50:59.947Z,1012.83
2018-07-03T07:51:59.899Z,1012.55
2018-07-03T07:52:59.922Z,1012.46
2018-07-03T07:53:59.837Z,1012.37
2018-07-03T07:54:59.884Z,1012.34
2018-07-03T07:55:59.772Z,1012.48
2018-07-03T07:56:59.759Z,1012.60
2018-07-03T07:57:59.739Z,1012.75
2018-07-03T07:58:59.718Z,1012.65
2018-07-03T07:59:59.688Z,1012.52
2018-07-03T08:00:59.667Z,1012.58
2018-07-03T08:01:59.613Z,1012.78
2018-07-03T08:02:59.601Z,1012.69
2018-07-03T08:03:59.572Z,1012.77
2018-07-03T08:04:59.537Z,1012.79
2018-07-03T08:05:59.522Z,1012.87
2018-07-03T08:06:59.481Z,1012.86
2018-07-03T08:07:59.477Z,1012.85
2018-07-03T08:08:59.416Z,1012.86
2018-07-03T08:09:59.386Z,1012.79
2018-07-03T08:10:59.397Z,1012.83
2018-07-03T08:11:59.339Z,1012.81
2018-07-03T08:12:59.308Z,1012.78
2018-07-03T08:13:59.269Z,1012.78
2018-07-03T08:14:59.252Z,1012.85
2018-07-03T08:15:59.259Z,1012.81
2018-07-03T08:16:59.216Z,1012.77
2018-07-03T08:17:59.212Z,1012.81
2018-07-03T08:18:59.148Z,1012.73
2018-07-03T08:19:59.143Z,1012.79
2018-07-03T08:20:59.076Z,1012.76
2018-07-03T08:21:59.106Z,1012.73
2018-07-03T08:22:59.073Z,1012.63
2018-07-03T08:23:58.998Z,1012.62
2018-07-03T08:24:58.977Z,1012.70
2018-07-03T08:25:58.975Z,1012.76
2018-07-03T08:26:58.936Z,1012.84
2018-07-03T08:27:58.895Z,1012.77
2018-07-03T08:28:58.900Z,1012.78
2018-07-03T08:29:58.838Z,1012.78
2018-07-03T08:30:58.830Z,1012.79
2018-07-03T08:31:58.801Z,1012.81
2018-07-03T08:32:58.767Z,1012.75
2018-07-03T08:33:58.792Z,1012.74
2018-07-03T08:34:58.707Z,1012.81
2018-07-03T08:35:58.690Z,1012.81
2018-07-03T08:36:58.644Z,1012.80
2018-07-03T08:37:58.632Z,1012.79
2018-07-03T08:38:58.607Z,1012.81
2018-07-03T08:39:58.572Z,1012.72
2018-07-03T08:40:58.533Z,1012.70
2018-07-03T08:41:58.526Z,1012.72
2018-07-03T08:42:58.615Z,1012.72
2018-07-03T08:43:58.476Z,1012.69
2018-07-03T08:44:58.482Z,1012.79
2018-07-03T08:45:58.402Z,1012.71
2018-07-03T08:46:58.436Z,1012.79
2018-07-03T08:47:58.400Z,1012.74
2018-07-03T08:48:58.340Z,1012.78
2018-07-03T08:49:58.335Z,1012.71
2018-07-03T08:50:58.276Z,1012.72
2018-07-03T08:52:09.166Z,1012.69
2018-07-03T08:52:58.293Z,1012.65
2018-07-03T08:53:58.425Z,1012.75
2018-07-03T08:54:58.196Z,1012.75
2018-07-03T08:55:58.158Z,1012.77
2018-07-03T08:56:58.154Z,1012.79
2018-07-03T08:57:58.142Z,1012.64
2018-07-03T08:58:58.106Z,1012.61
2018-07-03T08:59:58.079Z,1012.83
2018-07-03T09:00:58.090Z,1012.68
2018-07-03T09:01:57.994Z,1012.64
2018-07-03T09:02:57.989Z,1012.63
2018-07-03T09:03:57.962Z,1012.55
2018-07-03T09:04:57.951Z,1012.55
2018-07-03T09:05:57.901Z,1012.54
2018-07-03T09:06:57.870Z,1012.53
2018-07-03T09:07:57.828Z,1012.57
2018-07-03T09:08:57.845Z,1012.69
2018-07-03T09:09:57.833Z,1012.51
2018-07-03T09:10:57.769Z,1012.50
2018-07-03T09:11:57.771Z,1012.49
2018-07-03T09:12:57.719Z,1012.51
2018-07-03T09:13:57.709Z,1012.42
2018-07-03T09:14:57.727Z,1012.39
2018-07-03T09:15:57.667Z,1012.49
2018-07-03T09:16:57.611Z,1012.44
2018-07-03T09:17:57.640Z,1012.40
2018-07-03T09:18:57.576Z,1012.41
2018-07-03T09:19:57.570Z,1012.41
2018-07-03T09:20:57.529Z,1012.41
2018-07-03T09:21:57.489Z,1012.47
2018-07-03T09:22:57.456Z,1012.48
2018-07-03T09:23:57.432Z,1012.46
2018-07-03T09:24:57.409Z,1012.39
2018-07-03T09:25:57.429Z,1012.41
2018-07-03T09:26:57.357Z,1012.51
2018-07-03T09:27:57.337Z,1012.51
2018-07-03T09:28:57.298Z,1012.35
2018-07-03T09:29:57.281Z,1012.37
2018-07-03T09:30:57.259Z,1012.33
2018-07-03T09:31:57.241Z,1012.30
2018-07-03T09:32:57.211Z,1012.25
2018-07-03T09:33:57.214Z,1012.36
2018-07-03T09:34:57.180Z,1012.16
2018-07-03T09:35:57.154Z,1012.18
2018-07-03T09:36:57.103Z,1012.28
2018-07-03T09:37:57.073Z,1012.14
2018-07-03T09:38:57.057Z,1012.22
2018-07-03T09:39:57.008Z,1012.17
2018-07-03T09:40:57.003Z,1012.17
2018-07-03T09:41:56.989Z,1012.19
2018-07-03T09:42:56.950Z,1012.39
2018-07-03T09:43:56.933Z,1012.19
2018-07-03T09:44:56.977Z,1012.19
2018-07-03T09:45:56.869Z,1012.15
2018-07-03T09:46:56.880Z,1012.18
2018-07-03T09:47:56.819Z,1012.17
2018-07-03T09:48:56.795Z,1012.30
2018-07-03T09:49:56.755Z,1012.26
2018-07-03T09:50:56.752Z,1012.26
2018-07-03T09:51:56.779Z,1012.22
2018-07-03T09:52:56.722Z,1012.23
2018-07-03T09:53:56.647Z,1012.18
2018-07-03T09:54:56.665Z,1012.28
2018-07-03T09:55:56.590Z,1012.29
2018-07-03T09:56:56.587Z,1012.26
2018-07-03T09:57:56.563Z,1012.22
2018-07-03T09:58:56.513Z,1012.24
2018-07-03T09:59:56.502Z,1012.23
2018-07-03T10:00:56.504Z,1012.30
2018-07-03T10:01:56.442Z,1012.27
2018-07-03T10:02:56.392Z,1012.23
2018-07-03T10:04:07.287Z,1012.24
2018-07-03T10:04:56.356Z,1012.27
2018-07-03T10:05:56.416Z,1012.24
2018-07-03T10:06:56.538Z,1012.19
2018-07-03T10:07:56.286Z,1012.17
2018-07-03T10:08:56.250Z,1012.18
2018-07-03T10:09:56.208Z,1012.18
2018-07-03T10:10:56.184Z,1012.11
2018-07-03T10:11:56.153Z,1012.10
2018-07-03T10:12:56.243Z,1012.11
2018-07-03T10:13:56.118Z,1012.07
2018-07-03T10:14:56.153Z,1012.11
2018-07-03T10:15:56.063Z,1012.07
2018-07-03T10:16:56.051Z,1011.90
2018-07-03T10:17:56.035Z,1012.05
2018-07-03T10:18:56.015Z,1012.09
2018-07-03T10:19:55.970Z,1012.00
2018-07-03T10:20:55.946Z,1012.02
2018-07-03T10:21:55.897Z,1011.97
2018-07-03T10:22:55.960Z,1011.97
2018-07-03T10:23:55.853Z,1012.01
2018-07-03T10:24:55.842Z,1012.11
2018-07-03T10:25:55.816Z,1012.05
2018-07-03T10:26:55.788Z,1011.95
2018-07-03T10:28:07.092Z,1011.92
2018-07-03T10:28:55.836Z,1011.89
2018-07-03T10:29:56.653Z,1011.89
2018-07-03T10:30:56.609Z,1011.87
2018-07-03T10:31:56.468Z,1011.92
2018-07-03T10:32:55.623Z,1011.96
2018-07-03T10:33:55.640Z,1011.92
2018-07-03T10:34:55.620Z,1011.91
2018-07-03T10:35:55.571Z,1011.92
2018-07-03T10:36:56.646Z,1011.91
2018-07-03T10:37:56.394Z,1011.86
2018-07-03T10:38:56.192Z,1011.85
2018-07-03T10:39:55.439Z,1011.84
2018-07-03T10:40:55.424Z,1011.82
2018-07-03T10:41:55.406Z,1011.79
2018-07-03T10:42:55.361Z,1011.81
2018-07-03T10:43:55.369Z,1011.83
2018-07-03T10:44:55.332Z,1011.83
2018-07-03T10:45:55.316Z,1011.83
2018-07-03T10:46:55.296Z,1011.81
2018-07-03T10:47:55.254Z,1011.80
2018-07-03T10:48:55.328Z,1011.83
2018-07-03T10:49:55.269Z,1011.87
2018-07-03T10:51:06.291Z,1011.84
2018-07-03T10:51:55.915Z,1011.84
2018-07-03T10:52:55.974Z,1011.91
2018-07-03T10:53:55.140Z,1011.98
2018-07-03T10:54:55.185Z,1011.97
2018-07-03T10:55:55.079Z,1011.84
2018-07-03T10:56:55.051Z,1012.00
2018-07-03T10:57:55.011Z,1012.04
2018-07-03T10:58:54.988Z,1012.09
2018-07-03T10:59:54.973Z,1012.06
2018-07-03T11:00:54.934Z,1012.02
2018-07-03T11:01:54.915Z,1012.06
2018-07-03T11:02:54.954Z,1011.99
2018-07-03T11:03:54.857Z,1012.06
2018-07-03T11:04:54.860Z,1012.07
2018-07-03T11:05:54.829Z,1012.11
2018-07-03T11:06:54.825Z,1012.08
2018-07-03T11:07:54.775Z,1012.11
2018-07-03T11:08:54.732Z,1012.12
2018-07-03T11:09:54.721Z,1012.10
2018-07-03T11:10:54.688Z,1012.08
2018-07-03T11:11:54.655Z,1011.94
2018-07-03T11:12:54.639Z,1011.87
2018-07-03T11:13:54.740Z,1011.87
2018-07-03T11:14:54.606Z,1011.82
2018-07-03T11:15:54.604Z,1011.81
2018-07-03T11:16:54.565Z,1011.76
2018-07-03T11:17:54.536Z,1011.79
2018-07-03T11:18:54.483Z,1011.89
2018-07-03T11:19:54.563Z,1011.82
2018-07-03T11:20:54.441Z,1012.04
2018-07-03T11:21:54.442Z,1011.96
2018-07-03T11:22:54.380Z,1011.94
2018-07-03T11:23:54.363Z,1011.73
2018-07-03T11:24:54.375Z,1011.71
2018-07-03T11:25:54.314Z,1011.83
2018-07-03T11:26:54.323Z,1011.80
2018-07-03T11:27:54.278Z,1011.81
2018-07-03T11:28:54.279Z,1011.76
2018-07-03T11:29:54.222Z,1011.78
2018-07-03T11:30:54.205Z,1011.64
2018-07-03T11:31:54.160Z,1011.56
2018-07-03T11:32:54.143Z,1011.87
2018-07-03T11:33:54.121Z,1011.65
2018-07-03T11:34:54.101Z,1011.63
2018-07-03T11:35:54.086Z,1011.60
2018-07-03T11:36:54.054Z,1011.51
2018-07-03T11:37:54.016Z,1011.46
2018-07-03T11:38:53.977Z,1011.51
2018-07-03T11:39:54.000Z,1011.46
2018-07-03T11:40:53.993Z,1011.49
2018-07-03T11:41:53.909Z,1011.50
2018-07-03T11:42:53.898Z,1011.51
2018-07-03T11:43:53.860Z,1011.49
2018-07-03T11:44:53.877Z,1011.47
2018-07-03T11:45:53.844Z,1011.41
2018-07-03T11:46:53.839Z,1011.46
2018-07-03T11:47:53.761Z,1011.50
2018-07-03T11:48:53.750Z,1011.48
2018-07-03T11:49:53.705Z,1011.52
2018-07-03T11:50:53.696Z,1011.65
2018-07-03T11:51:53.692Z,1011.59
2018-07-03T11:52:53.635Z,1011.68
2018-07-03T11:53:53.627Z,1011.70
2018-07-03T11:54:53.569Z,1011.66
2018-07-03T11:55:53.543Z,1011.59
2018-07-03T11:56:53.530Z,1011.56
2018-07-03T11:57:53.531Z,1011.53
2018-07-03T11:58:53.518Z,1011.68
2018-07-03T11:59:53.473Z,1011.66
2018-07-03T12:00:53.442Z,1011.50
2018-07-03T12:01:53.451Z,1011.44
2018-07-03T12:02:53.363Z,1011.44
2018-07-03T12:03:53.352Z,1011.32
2018-07-03T12:04:53.328Z,1011.42